sensor_id;sensor_type;location;lat;lon;timestamp;pressure;altitude;pressure_sealevel;temperature;humidity
76753;BME280;65687;51.308;16.916;2023-07-31T00:03:00;99319.48;;;15.72;89.16
76753;BME280;65687;51.308;16.916;2023-07-31T00:08:02;99320.77;;;15.70;89.22
76753;BME280;65687;51.308;16.916;2023-07-31T00:13:04;99326.76;;;15.66;89.05
76753;BME280;65687;51.308;16.916;2023-07-31T00:18:05;99329.80;;;15.61;88.96
76753;BME280;65687;51.308;16.916;2023-07-31T00:23:07;99325.48;;;15.55;88.82
76753;BME280;65687;51.308;16.916;2023-07-31T00:28:08;99322.34;;;15.49;88.56
76753;BME280;65687;51.308;16.916;2023-07-31T00:33:10;99320.72;;;15.42;88.75
76753;BME280;65687;51.308;16.916;2023-07-31T00:38:11;99321.48;;;15.35;88.81
76753;BME280;65687;51.308;16.916;2023-07-31T00:43:13;99323.02;;;15.31;88.88
76753;BME280;65687;51.308;16.916;2023-07-31T00:48:14;99323.54;;;15.27;88.95
76753;BME280;65687;51.308;16.916;2023-07-31T00:53:16;99326.69;;;15.24;89.24
76753;BME280;65687;51.308;16.916;2023-07-31T00:58:18;99335.94;;;15.21;89.34
76753;BME280;65687;51.308;16.916;2023-07-31T01:03:19;99334.63;;;15.19;89.40
76753;BME280;65687;51.308;16.916;2023-07-31T01:08:33;99336.64;;;15.18;89.40
76753;BME280;65687;51.308;16.916;2023-07-31T01:13:36;99335.71;;;15.15;89.33
76753;BME280;65687;51.308;16.916;2023-07-31T01:18:38;99335.46;;;15.14;89.48
76753;BME280;65687;51.308;16.916;2023-07-31T01:34:17;99335.64;;;15.09;88.99
76753;BME280;65687;51.308;16.916;2023-07-31T01:39:20;99336.19;;;15.10;89.14
76753;BME280;65687;51.308;16.916;2023-07-31T01:44:22;99334.48;;;15.11;89.20
76753;BME280;65687;51.308;16.916;2023-07-31T01:49:23;99337.68;;;15.09;88.92
76753;BME280;65687;51.308;16.916;2023-07-31T01:54:25;99338.09;;;15.07;88.90
76753;BME280;65687;51.308;16.916;2023-07-31T01:59:26;99334.46;;;15.06;88.63
76753;BME280;65687;51.308;16.916;2023-07-31T02:04:28;99333.91;;;15.00;88.65
76753;BME280;65687;51.308;16.916;2023-07-31T02:09:29;99335.35;;;14.93;88.19
76753;BME280;65687;51.308;16.916;2023-07-31T02:14:31;99334.64;;;14.88;88.31
76753;BME280;65687;51.308;16.916;2023-07-31T02:19:32;99334.45;;;14.83;88.21
76753;BME280;65687;51.308;16.916;2023-07-31T02:24:34;99335.12;;;14.79;88.22
76753;BME280;65687;51.308;16.916;2023-07-31T02:29:35;99334.30;;;14.76;88.01
76753;BME280;65687;51.308;16.916;2023-07-31T02:34:37;99341.74;;;14.71;88.16
76753;BME280;65687;51.308;16.916;2023-07-31T02:39:38;99341.13;;;14.64;88.52
76753;BME280;65687;51.308;16.916;2023-07-31T02:44:40;99333.17;;;14.56;88.69
76753;BME280;65687;51.308;16.916;2023-07-31T02:49:42;99330.48;;;14.49;88.83
76753;BME280;65687;51.308;16.916;2023-07-31T02:54:43;99326.41;;;14.45;88.82
76753;BME280;65687;51.308;16.916;2023-07-31T02:59:45;99322.55;;;14.38;88.85
76753;BME280;65687;51.308;16.916;2023-07-31T03:04:47;99331.60;;;14.32;89.01
76753;BME280;65687;51.308;16.916;2023-07-31T03:09:48;99329.63;;;14.21;89.12
76753;BME280;65687;51.308;16.916;2023-07-31T03:14:50;99330.13;;;14.13;89.30
76753;BME280;65687;51.308;16.916;2023-07-31T03:19:51;99332.69;;;14.09;89.51
76753;BME280;65687;51.308;16.916;2023-07-31T03:24:53;99334.48;;;14.12;89.57
76753;BME280;65687;51.308;16.916;2023-07-31T03:29:55;99340.20;;;14.14;89.35
76753;BME280;65687;51.308;16.916;2023-07-31T03:34:57;99340.03;;;14.10;89.34
76753;BME280;65687;51.308;16.916;2023-07-31T03:39:59;99337.42;;;14.05;89.28
76753;BME280;65687;51.308;16.916;2023-07-31T03:45:00;99336.65;;;13.99;89.60
76753;BME280;65687;51.308;16.916;2023-07-31T03:50:02;99338.52;;;13.95;89.48
76753;BME280;65687;51.308;16.916;2023-07-31T03:55:04;99333.80;;;13.88;89.73
76753;BME280;65687;51.308;16.916;2023-07-31T04:00:05;99338.91;;;13.89;89.87
76753;BME280;65687;51.308;16.916;2023-07-31T04:05:07;99337.27;;;13.85;90.01
76753;BME280;65687;51.308;16.916;2023-07-31T04:10:09;99334.95;;;13.83;90.34
76753;BME280;65687;51.308;16.916;2023-07-31T04:15:11;99330.11;;;13.85;90.46
76753;BME280;65687;51.308;16.916;2023-07-31T04:20:12;99330.86;;;13.87;90.66
76753;BME280;65687;51.308;16.916;2023-07-31T04:25:14;99330.38;;;13.91;90.73
76753;BME280;65687;51.308;16.916;2023-07-31T04:30:16;99332.63;;;13.92;90.88
76753;BME280;65687;51.308;16.916;2023-07-31T04:35:17;99333.17;;;13.89;91.53
76753;BME280;65687;51.308;16.916;2023-07-31T04:40:19;99338.91;;;13.92;91.59
76753;BME280;65687;51.308;16.916;2023-07-31T04:45:20;99335.30;;;13.95;91.87
76753;BME280;65687;51.308;16.916;2023-07-31T04:50:22;99332.77;;;13.99;91.74
76753;BME280;65687;51.308;16.916;2023-07-31T04:55:23;99337.58;;;14.04;91.19
76753;BME280;65687;51.308;16.916;2023-07-31T05:00:25;99336.51;;;14.11;90.79
76753;BME280;65687;51.308;16.916;2023-07-31T05:05:26;99343.96;;;14.18;90.51
76753;BME280;65687;51.308;16.916;2023-07-31T05:10:28;99338.83;;;14.26;90.32
76753;BME280;65687;51.308;16.916;2023-07-31T05:15:29;99335.88;;;14.29;90.56
76753;BME280;65687;51.308;16.916;2023-07-31T05:20:31;99338.55;;;14.31;90.38
76753;BME280;65687;51.308;16.916;2023-07-31T05:25:32;99335.94;;;14.34;90.93
76753;BME280;65687;51.308;16.916;2023-07-31T05:30:34;99332.62;;;14.36;91.30
76753;BME280;65687;51.308;16.916;2023-07-31T05:35:35;99334.73;;;14.41;91.75
76753;BME280;65687;51.308;16.916;2023-07-31T05:40:37;99329.77;;;14.48;91.93
76753;BME280;65687;51.308;16.916;2023-07-31T05:45:38;99326.15;;;14.51;92.14
76753;BME280;65687;51.308;16.916;2023-07-31T05:50:43;99323.95;;;14.55;91.66
76753;BME280;65687;51.308;16.916;2023-07-31T05:55:44;99323.19;;;14.61;91.71
76753;BME280;65687;51.308;16.916;2023-07-31T06:00:46;99319.77;;;14.70;91.15
76753;BME280;65687;51.308;16.916;2023-07-31T06:05:48;99318.98;;;14.79;90.98
76753;BME280;65687;51.308;16.916;2023-07-31T06:10:49;99316.30;;;14.85;90.57
76753;BME280;65687;51.308;16.916;2023-07-31T06:15:51;99318.08;;;14.95;90.98
76753;BME280;65687;51.308;16.916;2023-07-31T06:20:52;99318.11;;;15.05;89.90
76753;BME280;65687;51.308;16.916;2023-07-31T06:25:54;99322.55;;;15.14;88.61
76753;BME280;65687;51.308;16.916;2023-07-31T06:30:57;99322.23;;;15.23;87.70
76753;BME280;65687;51.308;16.916;2023-07-31T06:35:58;99324.14;;;15.33;87.64
76753;BME280;65687;51.308;16.916;2023-07-31T06:41:00;99327.06;;;15.43;87.51
76753;BME280;65687;51.308;16.916;2023-07-31T06:46:08;99326.86;;;15.51;86.87
76753;BME280;65687;51.308;16.916;2023-07-31T06:51:10;99330.52;;;15.57;86.21
76753;BME280;65687;51.308;16.916;2023-07-31T06:56:11;99326.49;;;15.63;86.11
76753;BME280;65687;51.308;16.916;2023-07-31T07:01:13;99330.00;;;15.71;85.92
76753;BME280;65687;51.308;16.916;2023-07-31T07:06:14;99324.41;;;15.81;85.65
76753;BME280;65687;51.308;16.916;2023-07-31T07:11:16;99318.41;;;15.90;85.45
76753;BME280;65687;51.308;16.916;2023-07-31T07:16:17;99319.64;;;15.95;84.96
76753;BME280;65687;51.308;16.916;2023-07-31T07:21:19;99314.63;;;16.08;84.82
76753;BME280;65687;51.308;16.916;2023-07-31T07:26:20;99311.01;;;16.22;83.46
76753;BME280;65687;51.308;16.916;2023-07-31T07:31:22;99309.83;;;16.37;83.44
76753;BME280;65687;51.308;16.916;2023-07-31T07:36:23;99299.64;;;16.54;82.56
76753;BME280;65687;51.308;16.916;2023-07-31T07:41:25;99299.35;;;16.76;82.03
76753;BME280;65687;51.308;16.916;2023-07-31T07:46:26;99298.66;;;16.97;81.77
76753;BME280;65687;51.308;16.916;2023-07-31T07:51:28;99298.85;;;17.15;79.76
76753;BME280;65687;51.308;16.916;2023-07-31T07:56:32;99296.65;;;17.27;78.89
76753;BME280;65687;51.308;16.916;2023-07-31T08:01:34;99289.48;;;17.39;78.01
76753;BME280;65687;51.308;16.916;2023-07-31T08:06:35;99293.19;;;17.48;76.22
76753;BME280;65687;51.308;16.916;2023-07-31T08:11:37;99294.54;;;17.60;75.59
76753;BME280;65687;51.308;16.916;2023-07-31T08:16:38;99291.69;;;17.73;76.47
76753;BME280;65687;51.308;16.916;2023-07-31T08:21:40;99288.84;;;17.81;75.46
76753;BME280;65687;51.308;16.916;2023-07-31T08:26:42;99289.64;;;17.91;75.25
76753;BME280;65687;51.308;16.916;2023-07-31T08:31:43;99291.39;;;18.06;75.53
76753;BME280;65687;51.308;16.916;2023-07-31T08:36:45;99300.23;;;18.10;75.60
76753;BME280;65687;51.308;16.916;2023-07-31T08:41:47;99304.32;;;18.04;74.63
76753;BME280;65687;51.308;16.916;2023-07-31T08:46:49;99302.19;;;17.94;74.98
76753;BME280;65687;51.308;16.916;2023-07-31T08:51:52;99299.45;;;17.88;75.64
76753;BME280;65687;51.308;16.916;2023-07-31T08:56:53;99290.91;;;17.82;76.41
76753;BME280;65687;51.308;16.916;2023-07-31T09:01:55;99290.82;;;17.78;76.79
76753;BME280;65687;51.308;16.916;2023-07-31T09:07:03;99302.83;;;17.74;76.27
76753;BME280;65687;51.308;16.916;2023-07-31T09:12:06;99307.65;;;17.69;75.57
76753;BME280;65687;51.308;16.916;2023-07-31T09:17:08;99307.38;;;17.66;75.62
76753;BME280;65687;51.308;16.916;2023-07-31T09:22:09;99312.69;;;17.61;75.15
76753;BME280;65687;51.308;16.916;2023-07-31T09:27:11;99318.46;;;17.54;74.91
76753;BME280;65687;51.308;16.916;2023-07-31T09:32:16;99329.77;;;17.49;75.24
76753;BME280;65687;51.308;16.916;2023-07-31T09:37:18;99336.80;;;17.45;74.81
76753;BME280;65687;51.308;16.916;2023-07-31T09:42:26;99338.60;;;17.36;74.02
76753;BME280;65687;51.308;16.916;2023-07-31T09:47:28;99331.94;;;17.19;74.40
76753;BME280;65687;51.308;16.916;2023-07-31T09:52:31;99331.55;;;17.01;75.56
76753;BME280;65687;51.308;16.916;2023-07-31T09:57:34;99328.98;;;16.90;76.21
76753;BME280;65687;51.308;16.916;2023-07-31T10:02:37;99325.72;;;16.84;76.66
76753;BME280;65687;51.308;16.916;2023-07-31T10:07:41;99317.61;;;16.81;78.25
76753;BME280;65687;51.308;16.916;2023-07-31T10:12:43;99313.39;;;16.77;80.79
76753;BME280;65687;51.308;16.916;2023-07-31T10:17:48;99307.23;;;16.66;82.17
76753;BME280;65687;51.308;16.916;2023-07-31T10:22:50;99308.20;;;16.65;82.94
76753;BME280;65687;51.308;16.916;2023-07-31T10:27:53;99305.58;;;16.68;83.68
76753;BME280;65687;51.308;16.916;2023-07-31T10:32:55;99310.61;;;16.76;82.22
76753;BME280;65687;51.308;16.916;2023-07-31T10:38:12;99319.56;;;16.89;81.28
76753;BME280;65687;51.308;16.916;2023-07-31T10:43:25;99318.45;;;16.98;79.91
76753;BME280;65687;51.308;16.916;2023-07-31T10:48:33;99319.34;;;16.99;79.79
76753;BME280;65687;51.308;16.916;2023-07-31T10:53:36;99313.07;;;16.94;80.04
76753;BME280;65687;51.308;16.916;2023-07-31T10:58:38;99298.33;;;16.92;79.98
76753;BME280;65687;51.308;16.916;2023-07-31T11:03:41;99287.95;;;16.88;80.29
76753;BME280;65687;51.308;16.916;2023-07-31T11:08:49;99278.98;;;16.89;80.47
76753;BME280;65687;51.308;16.916;2023-07-31T11:13:52;99265.95;;;17.05;80.50
76753;BME280;65687;51.308;16.916;2023-07-31T11:18:54;99253.34;;;17.28;79.66
76753;BME280;65687;51.308;16.916;2023-07-31T11:23:57;99240.38;;;17.58;79.23
76753;BME280;65687;51.308;16.916;2023-07-31T11:28:59;99226.60;;;17.92;77.93
76753;BME280;65687;51.308;16.916;2023-07-31T11:34:05;99221.77;;;18.10;75.99
76753;BME280;65687;51.308;16.916;2023-07-31T11:39:09;99219.81;;;18.21;75.31
76753;BME280;65687;51.308;16.916;2023-07-31T11:44:11;99214.62;;;18.25;73.65
76753;BME280;65687;51.308;16.916;2023-07-31T11:49:13;99210.67;;;18.25;73.00
76753;BME280;65687;51.308;16.916;2023-07-31T11:54:14;99207.67;;;18.28;72.58
76753;BME280;65687;51.308;16.916;2023-07-31T11:59:16;99209.63;;;18.31;72.74
76753;BME280;65687;51.308;16.916;2023-07-31T12:04:18;99206.23;;;18.32;71.94
76753;BME280;65687;51.308;16.916;2023-07-31T12:09:21;99196.23;;;18.35;71.64
76753;BME280;65687;51.308;16.916;2023-07-31T12:14:27;99191.75;;;18.41;70.95
76753;BME280;65687;51.308;16.916;2023-07-31T12:19:31;99181.89;;;18.51;70.57
76753;BME280;65687;51.308;16.916;2023-07-31T12:24:34;99180.33;;;18.56;70.37
76753;BME280;65687;51.308;16.916;2023-07-31T12:29:35;99172.23;;;18.68;70.39
76753;BME280;65687;51.308;16.916;2023-07-31T12:34:42;99161.34;;;18.80;70.23
76753;BME280;65687;51.308;16.916;2023-07-31T12:39:44;99148.89;;;18.89;68.82
76753;BME280;65687;51.308;16.916;2023-07-31T12:44:46;99145.21;;;19.02;69.06
76753;BME280;65687;51.308;16.916;2023-07-31T12:49:47;99137.39;;;19.13;69.15
76753;BME280;65687;51.308;16.916;2023-07-31T12:54:49;99136.11;;;19.18;68.66
76753;BME280;65687;51.308;16.916;2023-07-31T12:59:50;99126.51;;;19.26;68.62
76753;BME280;65687;51.308;16.916;2023-07-31T13:04:52;99123.08;;;19.35;68.27
76753;BME280;65687;51.308;16.916;2023-07-31T13:09:54;99122.08;;;19.45;67.82
76753;BME280;65687;51.308;16.916;2023-07-31T13:14:55;99114.02;;;19.53;67.08
76753;BME280;65687;51.308;16.916;2023-07-31T13:19:57;99105.55;;;19.58;66.88
76753;BME280;65687;51.308;16.916;2023-07-31T13:24:59;99091.23;;;19.74;66.26
76753;BME280;65687;51.308;16.916;2023-07-31T13:30:01;99091.09;;;19.96;64.65
76753;BME280;65687;51.308;16.916;2023-07-31T13:35:06;99086.17;;;20.11;64.46
76753;BME280;65687;51.308;16.916;2023-07-31T13:40:08;99091.44;;;20.19;64.95
76753;BME280;65687;51.308;16.916;2023-07-31T13:45:10;99093.77;;;20.26;64.31
76753;BME280;65687;51.308;16.916;2023-07-31T13:50:11;99085.67;;;20.35;64.21
76753;BME280;65687;51.308;16.916;2023-07-31T13:55:13;99078.55;;;20.52;63.91
76753;BME280;65687;51.308;16.916;2023-07-31T14:00:15;99076.06;;;20.60;63.32
76753;BME280;65687;51.308;16.916;2023-07-31T14:05:16;99080.80;;;20.66;62.10
76753;BME280;65687;51.308;16.916;2023-07-31T14:10:18;99082.98;;;20.77;62.07
76753;BME280;65687;51.308;16.916;2023-07-31T14:15:19;99084.77;;;20.83;61.82
76753;BME280;65687;51.308;16.916;2023-07-31T14:20:21;99089.23;;;20.98;60.70
76753;BME280;65687;51.308;16.916;2023-07-31T14:25:22;99085.54;;;21.18;59.41
76753;BME280;65687;51.308;16.916;2023-07-31T14:30:24;99076.44;;;21.20;57.80
76753;BME280;65687;51.308;16.916;2023-07-31T14:35:25;99080.95;;;21.09;58.17
76753;BME280;65687;51.308;16.916;2023-07-31T14:40:27;99078.80;;;21.02;58.59
76753;BME280;65687;51.308;16.916;2023-07-31T14:45:28;99076.55;;;21.01;59.00
76753;BME280;65687;51.308;16.916;2023-07-31T14:50:30;99067.10;;;21.00;59.28
76753;BME280;65687;51.308;16.916;2023-07-31T14:55:31;99058.84;;;20.99;59.38
76753;BME280;65687;51.308;16.916;2023-07-31T15:00:33;99057.66;;;20.98;59.12
76753;BME280;65687;51.308;16.916;2023-07-31T15:05:34;99057.99;;;20.99;59.27
76753;BME280;65687;51.308;16.916;2023-07-31T15:10:36;99057.02;;;21.04;59.86
76753;BME280;65687;51.308;16.916;2023-07-31T15:15:37;99052.25;;;21.08;59.19
76753;BME280;65687;51.308;16.916;2023-07-31T15:20:39;99050.36;;;21.09;58.95
76753;BME280;65687;51.308;16.916;2023-07-31T15:25:40;99045.52;;;21.04;58.86
76753;BME280;65687;51.308;16.916;2023-07-31T15:30:42;99040.34;;;21.02;57.71
76753;BME280;65687;51.308;16.916;2023-07-31T15:35:44;99034.90;;;21.05;57.76
76753;BME280;65687;51.308;16.916;2023-07-31T15:40:45;99028.72;;;21.08;57.61
76753;BME280;65687;51.308;16.916;2023-07-31T15:45:46;99029.10;;;21.10;57.12
76753;BME280;65687;51.308;16.916;2023-07-31T15:50:48;99024.61;;;21.07;57.52
76753;BME280;65687;51.308;16.916;2023-07-31T15:55:49;99026.94;;;21.00;57.40
76753;BME280;65687;51.308;16.916;2023-07-31T16:00:51;99018.95;;;20.91;57.45
76753;BME280;65687;51.308;16.916;2023-07-31T16:05:52;99014.47;;;20.89;57.90
76753;BME280;65687;51.308;16.916;2023-07-31T16:10:54;99011.73;;;20.89;58.23
76753;BME280;65687;51.308;16.916;2023-07-31T16:15:57;99006.38;;;20.87;58.47
76753;BME280;65687;51.308;16.916;2023-07-31T16:20:59;99005.80;;;20.82;58.54
76753;BME280;65687;51.308;16.916;2023-07-31T16:26:00;98997.66;;;20.76;58.14
76753;BME280;65687;51.308;16.916;2023-07-31T16:31:02;98998.17;;;20.75;59.18
76753;BME280;65687;51.308;16.916;2023-07-31T16:36:03;99003.97;;;20.71;59.08
76753;BME280;65687;51.308;16.916;2023-07-31T16:41:05;99000.82;;;20.66;59.20
76753;BME280;65687;51.308;16.916;2023-07-31T16:46:07;98996.56;;;20.53;63.93
76753;BME280;65687;51.308;16.916;2023-07-31T16:51:09;98995.53;;;20.27;66.59
76753;BME280;65687;51.308;16.916;2023-07-31T16:56:12;98995.36;;;20.02;67.95
76753;BME280;65687;51.308;16.916;2023-07-31T17:01:14;98997.82;;;19.82;69.76
76753;BME280;65687;51.308;16.916;2023-07-31T17:06:15;98994.52;;;19.69;70.99
76753;BME280;65687;51.308;16.916;2023-07-31T17:11:17;98991.33;;;19.60;71.87
76753;BME280;65687;51.308;16.916;2023-07-31T17:16:19;98989.80;;;19.50;72.62
76753;BME280;65687;51.308;16.916;2023-07-31T17:21:21;98985.17;;;19.42;73.08
76753;BME280;65687;51.308;16.916;2023-07-31T17:26:23;98984.67;;;19.32;72.67
76753;BME280;65687;51.308;16.916;2023-07-31T17:31:24;98979.45;;;19.26;73.20
76753;BME280;65687;51.308;16.916;2023-07-31T17:36:27;98981.77;;;19.21;73.39
76753;BME280;65687;51.308;16.916;2023-07-31T17:41:29;98979.63;;;19.16;72.99
76753;BME280;65687;51.308;16.916;2023-07-31T17:46:32;98977.69;;;19.13;71.83
76753;BME280;65687;51.308;16.916;2023-07-31T17:51:33;98979.14;;;18.99;73.31
76753;BME280;65687;51.308;16.916;2023-07-31T17:56:35;98977.70;;;18.85;73.77
76753;BME280;65687;51.308;16.916;2023-07-31T18:01:39;98989.02;;;18.78;73.97
76753;BME280;65687;51.308;16.916;2023-07-31T18:06:40;98992.38;;;18.73;74.04
76753;BME280;65687;51.308;16.916;2023-07-31T18:11:42;98989.77;;;18.55;74.83
76753;BME280;65687;51.308;16.916;2023-07-31T18:16:43;98993.77;;;18.51;74.51
76753;BME280;65687;51.308;16.916;2023-07-31T18:21:45;98992.73;;;18.41;75.43
76753;BME280;65687;51.308;16.916;2023-07-31T18:26:46;98990.70;;;18.42;75.70
76753;BME280;65687;51.308;16.916;2023-07-31T18:31:48;98988.16;;;18.35;76.42
76753;BME280;65687;51.308;16.916;2023-07-31T18:36:49;98982.09;;;18.31;76.81
76753;BME280;65687;51.308;16.916;2023-07-31T18:41:51;98973.16;;;18.29;77.05
76753;BME280;65687;51.308;16.916;2023-07-31T18:46:53;98960.03;;;18.23;77.16
76753;BME280;65687;51.308;16.916;2023-07-31T18:51:54;98954.88;;;18.21;77.99
76753;BME280;65687;51.308;16.916;2023-07-31T18:56:56;98960.21;;;18.23;77.67
76753;BME280;65687;51.308;16.916;2023-07-31T19:01:57;98957.45;;;18.22;77.74
76753;BME280;65687;51.308;16.916;2023-07-31T19:06:59;98954.79;;;18.17;78.47
76753;BME280;65687;51.308;16.916;2023-07-31T19:12:01;98956.05;;;18.12;78.82
76753;BME280;65687;51.308;16.916;2023-07-31T19:17:02;98950.88;;;18.09;78.96
76753;BME280;65687;51.308;16.916;2023-07-31T19:22:04;98945.19;;;18.07;79.01
76753;BME280;65687;51.308;16.916;2023-07-31T19:27:06;98943.67;;;18.08;79.23
76753;BME280;65687;51.308;16.916;2023-07-31T19:32:08;98930.64;;;18.06;79.42
76753;BME280;65687;51.308;16.916;2023-07-31T19:37:09;98926.85;;;18.04;79.25
76753;BME280;65687;51.308;16.916;2023-07-31T19:42:11;98926.02;;;18.06;79.49
76753;BME280;65687;51.308;16.916;2023-07-31T19:47:13;98922.77;;;18.05;79.50
76753;BME280;65687;51.308;16.916;2023-07-31T19:52:14;98913.96;;;18.01;78.52
76753;BME280;65687;51.308;16.916;2023-07-31T19:57:16;98908.29;;;17.99;78.44
76753;BME280;65687;51.308;16.916;2023-07-31T20:02:17;98903.83;;;17.98;78.45
76753;BME280;65687;51.308;16.916;2023-07-31T20:07:19;98900.37;;;17.97;78.27
76753;BME280;65687;51.308;16.916;2023-07-31T20:12:20;98896.27;;;17.96;78.07
76753;BME280;65687;51.308;16.916;2023-07-31T20:17:22;98888.93;;;17.97;79.18
76753;BME280;65687;51.308;16.916;2023-07-31T20:22:24;98886.70;;;17.97;80.04
76753;BME280;65687;51.308;16.916;2023-07-31T20:27:25;98881.23;;;17.96;80.16
76753;BME280;65687;51.308;16.916;2023-07-31T20:32:27;98876.63;;;17.96;80.10
76753;BME280;65687;51.308;16.916;2023-07-31T20:37:29;98874.52;;;17.93;79.95
76753;BME280;65687;51.308;16.916;2023-07-31T20:42:30;98870.77;;;17.94;79.49
76753;BME280;65687;51.308;16.916;2023-07-31T20:47:32;98861.76;;;17.96;79.31
76753;BME280;65687;51.308;16.916;2023-07-31T20:52:33;98856.45;;;17.96;78.87
76753;BME280;65687;51.308;16.916;2023-07-31T20:57:35;98854.72;;;17.94;79.72
76753;BME280;65687;51.308;16.916;2023-07-31T21:02:36;98850.77;;;17.93;80.00
76753;BME280;65687;51.308;16.916;2023-07-31T21:07:38;98848.00;;;17.92;79.75
76753;BME280;65687;51.308;16.916;2023-07-31T21:12:40;98845.46;;;17.93;80.24
76753;BME280;65687;51.308;16.916;2023-07-31T21:17:42;98840.30;;;17.91;80.70
76753;BME280;65687;51.308;16.916;2023-07-31T21:22:43;98836.67;;;17.90;80.18
76753;BME280;65687;51.308;16.916;2023-07-31T21:27:45;98833.59;;;17.89;80.16
76753;BME280;65687;51.308;16.916;2023-07-31T21:32:46;98834.09;;;17.88;80.62
76753;BME280;65687;51.308;16.916;2023-07-31T21:37:48;98832.16;;;17.85;80.12
76753;BME280;65687;51.308;16.916;2023-07-31T21:42:50;98822.23;;;17.84;79.71
76753;BME280;65687;51.308;16.916;2023-07-31T21:47:51;98816.52;;;17.81;79.69
76753;BME280;65687;51.308;16.916;2023-07-31T21:52:53;98813.14;;;17.83;80.29
76753;BME280;65687;51.308;16.916;2023-07-31T21:57:55;98816.23;;;17.84;80.37
76753;BME280;65687;51.308;16.916;2023-07-31T22:02:56;98809.34;;;17.80;80.20
76753;BME280;65687;51.308;16.916;2023-07-31T22:07:58;98811.95;;;17.74;80.52
76753;BME280;65687;51.308;16.916;2023-07-31T22:13:00;98811.41;;;17.73;80.47
76753;BME280;65687;51.308;16.916;2023-07-31T22:18:01;98803.34;;;17.71;80.18
76753;BME280;65687;51.308;16.916;2023-07-31T22:23:03;98792.80;;;17.64;80.73
76753;BME280;65687;51.308;16.916;2023-07-31T22:28:05;98782.91;;;17.59;80.76
76753;BME280;65687;51.308;16.916;2023-07-31T22:33:06;98779.42;;;17.55;80.51
76753;BME280;65687;51.308;16.916;2023-07-31T22:38:08;98765.31;;;17.50;80.65
76753;BME280;65687;51.308;16.916;2023-07-31T22:43:09;98762.20;;;17.47;80.56
76753;BME280;65687;51.308;16.916;2023-07-31T22:48:13;98750.86;;;17.45;80.31
76753;BME280;65687;51.308;16.916;2023-07-31T22:53:14;98750.67;;;17.44;80.75
76753;BME280;65687;51.308;16.916;2023-07-31T22:58:15;98758.20;;;17.45;80.32
76753;BME280;65687;51.308;16.916;2023-07-31T23:03:17;98756.67;;;17.45;80.53
76753;BME280;65687;51.308;16.916;2023-07-31T23:08:18;98757.70;;;17.45;80.44
76753;BME280;65687;51.308;16.916;2023-07-31T23:13:20;98753.08;;;17.44;80.36
76753;BME280;65687;51.308;16.916;2023-07-31T23:18:22;98753.20;;;17.42;80.76
76753;BME280;65687;51.308;16.916;2023-07-31T23:23:24;98741.92;;;17.41;81.18
76753;BME280;65687;51.308;16.916;2023-07-31T23:28:26;98729.41;;;17.39;81.23
76753;BME280;65687;51.308;16.916;2023-07-31T23:33:27;98721.56;;;17.38;81.37
76753;BME280;65687;51.308;16.916;2023-07-31T23:38:30;98718.27;;;17.36;80.95
76753;BME280;65687;51.308;16.916;2023-07-31T23:43:32;98709.71;;;17.35;80.91
76753;BME280;65687;51.308;16.916;2023-07-31T23:48:34;98703.58;;;17.36;80.86
76753;BME280;65687;51.308;16.916;2023-07-31T23:53:35;98697.14;;;17.38;80.52
76753;BME280;65687;51.308;16.916;2023-07-31T23:58:37;98687.71;;;17.37;80.04
